Time;durP1;ratioP1;P1;durP2;ratioP2;P2;SDS_P1;SDS_P2;PMS_P1;PMS_P2;Temp;Humidity;BMP_temperature;BMP_pressure;BME280_temperature;BME280_humidity;BME280_pressure;Samples;Min_cycle;Max_cycle;Signal;HPM_P1;HPM_P2
2023/06/30 00:00:00;;;;;;;9.68;1.55;;;;;;;;;;5048641;28;20109;-66
2023/06/30 00:02:26;;;;;;;2.97;0.90;;;;;;;;;;5048188;28;20051;-66
2023/06/30 00:04:53;;;;;;;4.90;1.50;;;;;;;;;;5055570;28;20128;-66
2023/06/30 00:07:21;;;;;;;5.03;1.38;;;;;;;;;;5042279;28;20109;-67
2023/06/30 00:09:47;;;;;;;6.78;1.33;;;;;;;;;;5064169;28;20123;-66
2023/06/30 00:12:15;;;;;;;3.40;1.20;;;;;;;;;;5051976;28;20053;-67
2023/06/30 00:14:44;;;;;;;5.32;1.38;;;;;;;;;;5045538;28;20053;-66
2023/06/30 00:17:12;;;;;;;2.78;1.00;;;;;;;;;;5035561;28;20060;-65
2023/06/30 00:19:38;;;;;;;5.00;1.38;;;;;;;;;;5072729;28;20045;-65
2023/06/30 00:22:05;;;;;;;8.55;1.65;;;;;;;;;;5039841;28;20103;-66
2023/06/30 00:24:32;;;;;;;10.48;1.58;;;;;;;;;;5045984;28;20064;-66
2023/06/30 00:26:59;;;;;;;6.07;1.30;;;;;;;;;;5038189;28;20057;-66
2023/06/30 00:29:27;;;;;;;4.50;1.40;;;;;;;;;;5044682;28;20140;-66
2023/06/30 00:31:53;;;;;;;4.63;1.60;;;;;;;;;;5044068;28;20049;-67
2023/06/30 00:34:20;;;;;;;3.47;1.05;;;;;;;;;;5053223;28;20083;-67
2023/06/30 00:36:48;;;;;;;7.60;1.60;;;;;;;;;;5039189;28;20072;-66
2023/06/30 00:39:15;;;;;;;5.47;1.40;;;;;;;;;;5025436;28;20057;-67
2023/06/30 00:41:42;;;;;;;5.28;1.30;;;;;;;;;;5039949;28;21585;-66
2023/06/30 00:44:08;;;;;;;4.95;1.25;;;;;;;;;;5038615;28;20140;-66
2023/06/30 00:46:37;;;;;;;4.20;1.20;;;;;;;;;;5043152;28;20087;-66
2023/06/30 00:49:03;;;;;;;5.97;1.50;;;;;;;;;;5027107;28;20680;-66
2023/06/30 00:51:30;;;;;;;7.78;1.30;;;;;;;;;;5057667;28;20052;-66
2023/06/30 00:53:56;;;;;;;3.10;1.23;;;;;;;;;;5041415;28;20116;-66
2023/06/30 00:56:23;;;;;;;3.90;1.10;;;;;;;;;;5038034;28;20172;-67
2023/06/30 00:58:49;;;;;;;7.43;1.45;;;;;;;;;;5050950;28;20125;-68
2023/06/30 01:01:18;;;;;;;2.17;1.15;;;;;;;;;;5037201;28;20057;-68
2023/06/30 01:03:48;;;;;;;4.63;1.35;;;;;;;;;;5050130;28;20056;-67
2023/06/30 01:06:18;;;;;;;8.25;1.20;;;;;;;;;;5053664;28;20126;-66
2023/06/30 01:08:49;;;;;;;5.28;1.13;;;;;;;;;;5041847;28;20129;-67
2023/06/30 01:11:16;;;;;;;6.03;1.38;;;;;;;;;;5035059;28;20136;-66
2023/06/30 01:13:43;;;;;;;4.70;1.33;;;;;;;;;;5042288;28;20080;-66
2023/06/30 01:16:10;;;;;;;4.75;1.60;;;;;;;;;;5038759;28;20056;-66
2023/06/30 01:18:37;;;;;;;5.70;1.25;;;;;;;;;;5038109;28;20057;-66
2023/06/30 01:21:06;;;;;;;5.32;1.25;;;;;;;;;;5035109;28;20076;-65
2023/06/30 01:23:32;;;;;;;;;;;;;;;;;;5044075;28;20069;-67
2023/06/30 01:26:00;;;;;;;5.18;1.40;;;;;;;;;;5033013;28;19967;-67
2023/06/30 01:28:27;;;;;;;5.47;1.45;;;;;;;;;;5045453;28;20064;-67
2023/06/30 01:30:57;;;;;;;4.65;1.15;;;;;;;;;;5055830;28;20049;-66
2023/06/30 01:33:26;;;;;;;4.68;1.00;;;;;;;;;;5042291;28;20049;-66
2023/06/30 01:35:53;;;;;;;4.50;1.10;;;;;;;;;;5037713;28;20080;-66
2023/06/30 01:38:21;;;;;;;7.63;1.48;;;;;;;;;;5015205;28;20128;-67
2023/06/30 01:40:47;;;;;;;5.15;1.30;;;;;;;;;;5032521;28;20175;-66
2023/06/30 01:43:14;;;;;;;4.60;1.10;;;;;;;;;;5032596;28;20053;-67
2023/06/30 01:45:41;;;;;;;8.85;1.60;;;;;;;;;;5037950;28;20055;-67
2023/06/30 01:48:08;;;;;;;3.15;1.25;;;;;;;;;;5039273;28;20049;-67
2023/06/30 01:50:35;;;;;;;10.68;1.58;;;;;;;;;;5035535;28;20135;-66
2023/06/30 01:53:02;;;;;;;5.70;1.48;;;;;;;;;;5033403;28;20064;-66
2023/06/30 01:55:30;;;;;;;6.25;1.40;;;;;;;;;;5040594;28;20053;-66
2023/06/30 01:57:57;;;;;;;2.45;1.08;;;;;;;;;;5038052;28;20053;-66
2023/06/30 02:00:23;;;;;;;5.28;1.35;;;;;;;;;;5070560;28;20064;-66
2023/06/30 02:02:50;;;;;;;6.53;1.17;;;;;;;;;;5039335;28;20049;-66
2023/06/30 02:05:17;;;;;;;4.35;1.38;;;;;;;;;;5040494;28;20074;-67
2023/06/30 02:07:43;;;;;;;6.60;1.63;;;;;;;;;;5034389;28;20065;-67
2023/06/30 02:10:12;;;;;;;8.50;1.42;;;;;;;;;;5040735;28;20079;-69
2023/06/30 02:12:40;;;;;;;3.72;1.25;;;;;;;;;;5038291;28;20060;-67
2023/06/30 02:15:08;;;;;;;3.22;1.20;;;;;;;;;;5030388;28;20140;-66
2023/06/30 02:17:35;;;;;;;5.68;1.20;;;;;;;;;;5035156;28;20080;-66
2023/06/30 02:20:03;;;;;;;9.98;1.40;;;;;;;;;;5039000;28;20061;-67
2023/06/30 02:22:29;;;;;;;6.45;1.35;;;;;;;;;;5027014;28;20075;-66
2023/06/30 02:24:56;;;;;;;4.63;1.30;;;;;;;;;;5024622;28;20056;-67
2023/06/30 02:27:23;;;;;;;6.88;1.55;;;;;;;;;;5041840;28;20052;-66
2023/06/30 02:29:51;;;;;;;6.07;1.45;;;;;;;;;;5038025;28;20060;-66
2023/06/30 02:32:18;;;;;;;5.38;1.30;;;;;;;;;;5031178;28;20057;-68
2023/06/30 02:34:44;;;;;;;4.90;1.20;;;;;;;;;;5024889;28;20144;-69
2023/06/30 02:37:11;;;;;;;3.33;1.30;;;;;;;;;;5050011;28;20067;-69
2023/06/30 02:39:38;;;;;;;3.97;1.48;;;;;;;;;;5040770;28;20061;-68
2023/06/30 02:42:05;;;;;;;6.43;1.50;;;;;;;;;;5039412;28;20044;-68
2023/06/30 02:44:31;;;;;;;5.15;1.48;;;;;;;;;;5008793;28;20053;-67
2023/06/30 02:47:01;;;;;;;4.20;1.40;;;;;;;;;;5040242;28;20045;-68
2023/06/30 02:49:28;;;;;;;4.70;1.30;;;;;;;;;;5036936;28;20059;-68
2023/06/30 02:51:55;;;;;;;3.85;1.40;;;;;;;;;;5057527;28;20064;-67
2023/06/30 02:54:21;;;;;;;6.07;1.50;;;;;;;;;;5062105;28;20048;-68
2023/06/30 02:56:49;;;;;;;5.22;1.52;;;;;;;;;;5045119;28;20118;-68
2023/06/30 02:59:16;;;;;;;5.47;1.48;;;;;;;;;;5051701;28;20056;-68
2023/06/30 03:01:42;;;;;;;5.95;1.33;;;;;;;;;;5044888;28;20132;-68
2023/06/30 03:04:14;;;;;;;3.80;1.50;;;;;;;;;;5023195;28;20061;-67
2023/06/30 03:06:40;;;;;;;3.42;1.70;;;;;;;;;;5041329;28;20057;-68
2023/06/30 03:09:08;;;;;;;4.93;1.48;;;;;;;;;;5030357;28;20061;-68
2023/06/30 03:11:34;;;;;;;8.85;1.80;;;;;;;;;;5041421;28;20065;-68
2023/06/30 03:14:01;;;;;;;4.70;1.70;;;;;;;;;;5036018;28;20045;-68
2023/06/30 03:16:27;;;;;;;12.75;1.70;;;;;;;;;;5033115;28;20079;-68
2023/06/30 03:18:54;;;;;;;4.25;1.70;;;;;;;;;;5035965;28;20053;-68
2023/06/30 03:21:32;;;;;;;5.47;1.40;;;;;;;;;;5038879;28;20112;-67
2023/06/30 03:24:05;;;;;;;10.10;1.92;;;;;;;;;;5030981;28;20076;-68
2023/06/30 03:26:32;;;;;;;4.57;1.58;;;;;;;;;;5035163;28;20067;-68
2023/06/30 03:28:59;;;;;;;4.15;1.25;;;;;;;;;;5051984;28;20083;-69
2023/06/30 03:31:26;;;;;;;3.28;1.35;;;;;;;;;;5038380;28;20064;-68
2023/06/30 03:33:58;;;;;;;5.72;1.48;;;;;;;;;;5002126;28;20143;-68
2023/06/30 03:36:26;;;;;;;4.55;1.55;;;;;;;;;;5029279;28;20075;-68
2023/06/30 03:38:53;;;;;;;7.60;1.70;;;;;;;;;;5039668;28;20041;-68
2023/06/30 03:41:19;;;;;;;5.78;1.67;;;;;;;;;;5042802;28;20369;-68
2023/06/30 03:43:46;;;;;;;5.80;1.80;;;;;;;;;;5039788;28;20136;-68
2023/06/30 03:46:15;;;;;;;4.63;1.50;;;;;;;;;;5025016;28;20053;-68
2023/06/30 03:48:42;;;;;;;5.18;1.67;;;;;;;;;;5042023;28;20069;-68
2023/06/30 03:51:11;;;;;;;8.50;1.52;;;;;;;;;;5045803;28;20044;-68
2023/06/30 03:53:39;;;;;;;4.13;1.48;;;;;;;;;;5045525;28;20068;-68
2023/06/30 03:56:08;;;;;;;7.43;1.50;;;;;;;;;;5028859;28;20041;-69
2023/06/30 03:58:35;;;;;;;7.75;1.75;;;;;;;;;;5038608;28;20065;-69
2023/06/30 04:01:01;;;;;;;2.75;1.45;;;;;;;;;;5039768;28;20076;-67
2023/06/30 04:03:28;;;;;;;4.45;1.58;;;;;;;;;;5042004;27;20160;-68
2023/06/30 04:05:55;;;;;;;5.20;1.88;;;;;;;;;;5031872;28;20049;-68
2023/06/30 04:08:23;;;;;;;8.07;1.73;;;;;;;;;;5031606;28;20052;-68
2023/06/30 04:10:51;;;;;;;3.40;1.50;;;;;;;;;;5072122;28;20139;-68
2023/06/30 04:13:17;;;;;;;5.63;1.70;;;;;;;;;;5040561;28;20051;-67
2023/06/30 04:15:44;;;;;;;4.90;1.55;;;;;;;;;;5039652;28;20129;-68
2023/06/30 04:18:16;;;;;;;6.78;1.75;;;;;;;;;;5037661;28;20079;-68
2023/06/30 04:20:42;;;;;;;2.33;1.42;;;;;;;;;;5044174;28;20098;-67
2023/06/30 04:23:09;;;;;;;5.15;1.70;;;;;;;;;;5069513;28;20049;-68
2023/06/30 04:25:36;;;;;;;4.93;1.80;;;;;;;;;;5018299;28;20053;-70
2023/06/30 04:28:04;;;;;;;4.03;1.80;;;;;;;;;;5043743;28;20055;-68
2023/06/30 04:30:31;;;;;;;3.60;1.60;;;;;;;;;;5057169;27;20080;-66
2023/06/30 04:32:58;;;;;;;5.07;1.83;;;;;;;;;;5038868;28;20076;-65
2023/06/30 04:35:25;;;;;;;4.65;1.63;;;;;;;;;;5037892;28;20068;-66
2023/06/30 04:37:52;;;;;;;6.95;2.60;;;;;;;;;;5038613;28;20056;-66
2023/06/30 04:40:18;;;;;;;9.38;3.80;;;;;;;;;;5035936;28;20059;-64
2023/06/30 04:42:45;;;;;;;13.85;5.50;;;;;;;;;;5039707;28;20056;-66
2023/06/30 04:45:13;;;;;;;13.70;6.63;;;;;;;;;;5048944;28;20052;-68
2023/06/30 04:47:39;;;;;;;7.00;2.38;;;;;;;;;;5046666;28;20053;-68
2023/06/30 04:50:06;;;;;;;5.57;2.10;;;;;;;;;;5040474;28;20084;-67
2023/06/30 04:52:33;;;;;;;4.13;1.92;;;;;;;;;;5034358;28;20076;-67
2023/06/30 04:54:59;;;;;;;5.75;2.05;;;;;;;;;;5034034;28;20049;-68
2023/06/30 04:57:26;;;;;;;6.88;1.80;;;;;;;;;;5045011;28;20057;-68
2023/06/30 04:59:54;;;;;;;10.05;3.10;;;;;;;;;;5037028;28;20044;-68
2023/06/30 05:02:25;;;;;;;4.88;1.58;;;;;;;;;;5031690;28;20053;-68
2023/06/30 05:04:51;;;;;;;6.45;2.38;;;;;;;;;;5031627;28;20049;-66
2023/06/30 05:07:18;;;;;;;5.72;2.35;;;;;;;;;;5042690;28;20066;-67
2023/06/30 05:09:44;;;;;;;2.80;1.50;;;;;;;;;;5034207;28;20057;-66
2023/06/30 05:12:12;;;;;;;6.00;1.98;;;;;;;;;;5038246;28;20053;-67
2023/06/30 05:14:39;;;;;;;17.02;7.00;;;;;;;;;;5036441;28;20056;-68
2023/06/30 05:17:05;;;;;;;13.20;4.32;;;;;;;;;;5039743;28;20053;-67
2023/06/30 05:19:34;;;;;;;7.70;2.10;;;;;;;;;;5036936;28;20060;-68
2023/06/30 05:22:00;;;;;;;5.22;1.98;;;;;;;;;;5043320;28;20053;-68
2023/06/30 05:24:26;;;;;;;3.53;1.80;;;;;;;;;;5026603;28;20056;-68
2023/06/30 05:26:56;;;;;;;5.97;2.28;;;;;;;;;;5039750;28;20057;-67
2023/06/30 05:29:22;;;;;;;4.10;1.42;;;;;;;;;;5036573;28;20056;-68
2023/06/30 05:31:49;;;;;;;4.18;1.60;;;;;;;;;;5041330;28;20053;-68
2023/06/30 05:34:18;;;;;;;5.88;1.70;;;;;;;;;;5030721;28;20108;-68
2023/06/30 05:36:46;;;;;;;5.88;1.98;;;;;;;;;;5038567;28;20110;-68
2023/06/30 05:39:14;;;;;;;4.60;1.65;;;;;;;;;;5042488;28;20061;-68
2023/06/30 05:41:41;;;;;;;3.25;1.50;;;;;;;;;;5038692;28;20056;-66
2023/06/30 05:44:09;;;;;;;4.38;1.73;;;;;;;;;;5011459;28;20061;-67
2023/06/30 05:46:37;;;;;;;8.48;1.98;;;;;;;;;;5049306;28;20052;-68
2023/06/30 05:49:05;;;;;;;5.50;2.58;;;;;;;;;;5040203;28;20053;-68
2023/06/30 05:51:32;;;;;;;7.82;2.80;;;;;;;;;;5040013;28;20056;-67
2023/06/30 05:54:02;;;;;;;5.80;2.08;;;;;;;;;;5038649;28;20072;-68
2023/06/30 05:56:36;;;;;;;4.47;1.70;;;;;;;;;;5012311;28;20457;-68
2023/06/30 05:59:03;;;;;;;4.38;1.60;;;;;;;;;;5024521;28;20087;-68
2023/06/30 06:01:31;;;;;;;4.53;1.95;;;;;;;;;;5015022;28;20056;-68
2023/06/30 06:03:58;;;;;;;8.73;1.55;;;;;;;;;;5007869;28;20201;-68
2023/06/30 06:06:24;;;;;;;10.90;1.90;;;;;;;;;;5023508;28;20053;-68
2023/06/30 06:08:51;;;;;;;6.68;1.77;;;;;;;;;;5029809;28;20056;-68
2023/06/30 06:11:21;;;;;;;3.88;1.52;;;;;;;;;;5032267;28;20088;-68
2023/06/30 06:13:48;;;;;;;5.75;1.70;;;;;;;;;;5038691;28;20072;-69
2023/06/30 06:16:14;;;;;;;8.20;1.73;;;;;;;;;;5018219;28;20143;-70
2023/06/30 06:18:41;;;;;;;5.18;1.60;;;;;;;;;;5033185;28;20064;-69
2023/06/30 06:21:08;;;;;;;6.22;1.67;;;;;;;;;;5041943;28;20049;-68
2023/06/30 06:23:40;;;;;;;3.88;1.67;;;;;;;;;;5036576;28;20061;-68
2023/06/30 06:26:07;;;;;;;4.60;1.42;;;;;;;;;;5035160;28;20060;-69
2023/06/30 06:28:36;;;;;;;2.45;1.40;;;;;;;;;;5027186;28;20079;-68
2023/06/30 06:31:03;;;;;;;6.53;1.20;;;;;;;;;;5035377;28;20056;-68
2023/06/30 06:33:30;;;;;;;1.98;1.10;;;;;;;;;;5033743;28;20052;-68
2023/06/30 06:36:08;;;;;;;3.58;1.10;;;;;;;;;;5019252;28;20108;-69
2023/06/30 06:38:36;;;;;;;4.18;1.20;;;;;;;;;;5036505;28;20064;-68
2023/06/30 06:41:06;;;;;;;3.10;1.20;;;;;;;;;;5036224;28;20049;-69
2023/06/30 06:43:32;;;;;;;6.53;1.42;;;;;;;;;;5033324;28;20167;-67
2023/06/30 06:46:00;;;;;;;4.82;1.20;;;;;;;;;;5004834;28;20049;-68
2023/06/30 06:48:30;;;;;;;3.80;1.10;;;;;;;;;;5029173;28;20067;-66
2023/06/30 06:50:57;;;;;;;3.15;1.15;;;;;;;;;;5029943;28;20061;-67
2023/06/30 06:53:26;;;;;;;2.15;0.80;;;;;;;;;;5028204;28;20164;-69
2023/06/30 06:55:54;;;;;;;6.10;1.33;;;;;;;;;;5013418;28;22467;-69
2023/06/30 06:58:21;;;;;;;4.15;0.90;;;;;;;;;;5029325;28;20064;-70
2023/06/30 07:00:48;;;;;;;1.70;0.80;;;;;;;;;;5035032;28;20106;-66
2023/06/30 07:03:16;;;;;;;3.70;1.23;;;;;;;;;;5032224;28;20675;-66
2023/06/30 07:05:43;;;;;;;3.95;1.05;;;;;;;;;;5008835;28;20092;-68
2023/06/30 07:08:11;;;;;;;4.00;1.27;;;;;;;;;;5036987;28;20057;-66
2023/06/30 07:10:37;;;;;;;1.77;0.90;;;;;;;;;;5028343;28;20075;-67
2023/06/30 07:13:04;;;;;;;1.63;0.90;;;;;;;;;;5034282;28;20171;-67
2023/06/30 07:15:31;;;;;;;4.28;1.00;;;;;;;;;;5020862;28;20113;-69
2023/06/30 07:17:58;;;;;;;4.97;1.00;;;;;;;;;;5039551;28;20133;-66
2023/06/30 07:20:26;;;;;;;1.38;0.77;;;;;;;;;;5043575;28;20084;-68
2023/06/30 07:22:54;;;;;;;2.72;0.90;;;;;;;;;;5043752;28;20063;-66
2023/06/30 07:25:21;;;;;;;1.70;0.90;;;;;;;;;;5021046;28;20045;-67
2023/06/30 07:27:49;;;;;;;3.30;1.30;;;;;;;;;;5039873;28;20056;-69
2023/06/30 07:30:16;;;;;;;7.65;3.15;;;;;;;;;;5034063;28;20110;-69
2023/06/30 07:32:43;;;;;;;4.45;1.83;;;;;;;;;;5072570;28;20203;-67
2023/06/30 07:35:12;;;;;;;3.83;0.80;;;;;;;;;;5014364;28;20103;-69
2023/06/30 07:37:40;;;;;;;4.00;1.15;;;;;;;;;;5039252;28;20065;-66
2023/06/30 07:40:12;;;;;;;4.00;1.02;;;;;;;;;;5032976;28;20057;-70
2023/06/30 07:42:39;;;;;;;5.63;2.20;;;;;;;;;;5037826;28;20053;-67
2023/06/30 07:45:09;;;;;;;3.58;1.40;;;;;;;;;;5044131;28;20055;-70
2023/06/30 07:47:35;;;;;;;2.38;1.05;;;;;;;;;;5043279;28;20114;-69
2023/06/30 07:50:09;;;;;;;3.75;1.33;;;;;;;;;;5051714;28;20053;-71
2023/06/30 07:52:36;;;;;;;1.67;0.90;;;;;;;;;;5035841;28;20065;-68
2023/06/30 07:55:04;;;;;;;2.60;0.93;;;;;;;;;;5039959;28;20041;-69
2023/06/30 07:57:31;;;;;;;2.75;0.90;;;;;;;;;;5040264;28;20572;-70
2023/06/30 07:59:59;;;;;;;1.73;0.73;;;;;;;;;;5037470;28;20060;-68
2023/06/30 08:02:26;;;;;;;5.80;1.17;;;;;;;;;;5033812;28;20045;-67
2023/06/30 08:04:52;;;;;;;2.95;0.80;;;;;;;;;;5023586;28;20128;-67
2023/06/30 08:07:19;;;;;;;1.80;0.93;;;;;;;;;;5025516;28;20049;-68
2023/06/30 08:09:46;;;;;;;4.35;1.00;;;;;;;;;;5081711;28;20049;-68
2023/06/30 08:12:14;;;;;;;1.80;0.80;;;;;;;;;;5031802;28;20049;-69
2023/06/30 08:14:40;;;;;;;4.78;0.98;;;;;;;;;;5018242;28;20068;-69
2023/06/30 08:17:07;;;;;;;3.22;1.10;;;;;;;;;;5047415;28;20057;-69
2023/06/30 08:19:33;;;;;;;6.60;0.98;;;;;;;;;;5035442;28;20195;-68
2023/06/30 08:22:01;;;;;;;4.57;0.98;;;;;;;;;;5036419;28;20053;-71
2023/06/30 08:24:32;;;;;;;2.22;0.82;;;;;;;;;;5020398;28;20058;-69
2023/06/30 08:27:01;;;;;;;2.25;0.90;;;;;;;;;;5048783;28;20052;-67
2023/06/30 08:29:29;;;;;;;2.47;1.00;;;;;;;;;;5049411;28;20364;-69
2023/06/30 08:31:58;;;;;;;3.53;1.00;;;;;;;;;;5059481;28;20045;-69
2023/06/30 08:34:26;;;;;;;5.72;1.10;;;;;;;;;;5031080;28;20068;-70
2023/06/30 08:36:53;;;;;;;3.63;0.93;;;;;;;;;;5012251;28;20052;-66
2023/06/30 08:39:21;;;;;;;2.88;1.00;;;;;;;;;;5042667;28;20057;-67
2023/06/30 08:41:47;;;;;;;;;;;;;;;;;;5034528;28;20057;-73
2023/06/30 08:44:21;;;;;;;2.13;0.70;;;;;;;;;;5032184;28;19924;-70
2023/06/30 08:46:50;;;;;;;6.03;1.33;;;;;;;;;;5004237;28;20049;-68
2023/06/30 08:49:20;;;;;;;6.57;1.40;;;;;;;;;;5034503;28;20056;-67
2023/06/30 08:51:47;;;;;;;3.30;0.90;;;;;;;;;;5038406;28;20192;-68
2023/06/30 08:54:16;;;;;;;3.65;1.17;;;;;;;;;;5038121;28;20048;-71
2023/06/30 08:56:45;;;;;;;2.42;0.80;;;;;;;;;;5004464;28;20059;-68
2023/06/30 08:59:20;;;;;;;3.90;1.00;;;;;;;;;;5034825;28;20056;-73
2023/06/30 09:01:47;;;;;;;2.03;0.95;;;;;;;;;;5031092;28;20134;-70
2023/06/30 09:04:16;;;;;;;5.90;1.13;;;;;;;;;;5033470;28;20076;-70
2023/06/30 09:06:49;;;;;;;2.83;0.90;;;;;;;;;;5040402;28;20056;-69
2023/06/30 09:09:21;;;;;;;5.00;0.90;;;;;;;;;;5038626;28;20056;-69
2023/06/30 09:11:52;;;;;;;3.90;1.00;;;;;;;;;;5072634;28;20045;-70
2023/06/30 09:14:19;;;;;;;2.17;0.90;;;;;;;;;;5027849;28;20131;-67
2023/06/30 09:17:10;;;;;;;10.00;1.17;;;;;;;;;;4997769;28;20052;-69
2023/06/30 09:19:39;;;;;;;3.80;0.95;;;;;;;;;;5033176;28;20136;-67
2023/06/30 09:22:14;;;;;;;5.38;1.00;;;;;;;;;;5034544;28;20051;-70
2023/06/30 09:24:42;;;;;;;3.47;1.55;;;;;;;;;;5035300;28;20189;-70
2023/06/30 09:27:10;;;;;;;;;;;;;;;;;;5043427;28;20064;-69
2023/06/30 09:29:37;;;;;;;3.28;1.20;;;;;;;;;;5038907;28;19932;-71
2023/06/30 09:32:05;;;;;;;2.15;1.02;;;;;;;;;;5037467;28;20061;-74
2023/06/30 09:34:34;;;;;;;5.88;1.35;;;;;;;;;;5044722;28;20092;-68
2023/06/30 09:37:02;;;;;;;4.63;1.40;;;;;;;;;;4908866;28;20094;-70
2023/06/30 09:39:29;;;;;;;5.22;1.17;;;;;;;;;;4956861;28;20054;-76
2023/06/30 09:41:55;;;;;;;3.85;1.33;;;;;;;;;;5021852;28;20049;-66
2023/06/30 09:44:22;;;;;;;3.63;1.20;;;;;;;;;;5040394;28;20053;-69
2023/06/30 09:46:49;;;;;;;3.30;1.20;;;;;;;;;;5026953;28;20126;-66
2023/06/30 09:49:23;;;;;;;3.55;1.23;;;;;;;;;;5027861;28;20057;-66
2023/06/30 09:51:49;;;;;;;5.50;1.77;;;;;;;;;;5049779;28;20111;-71
2023/06/30 09:54:18;;;;;;;8.93;1.70;;;;;;;;;;5017234;28;20053;-72
2023/06/30 09:56:47;;;;;;;3.42;1.80;;;;;;;;;;5029094;28;20049;-68
2023/06/30 09:59:14;;;;;;;5.40;1.67;;;;;;;;;;5038569;28;20060;-74
2023/06/30 10:01:41;;;;;;;6.38;1.50;;;;;;;;;;5032411;28;20072;-70
2023/06/30 10:04:12;;;;;;;4.53;1.50;;;;;;;;;;5036101;28;20127;-71
2023/06/30 10:06:39;;;;;;;6.13;1.38;;;;;;;;;;5023107;28;20069;-72
2023/06/30 10:09:06;;;;;;;4.68;1.35;;;;;;;;;;5075879;28;20076;-73
2023/06/30 10:11:36;;;;;;;6.53;1.30;;;;;;;;;;5034221;28;20084;-72
2023/06/30 10:14:03;;;;;;;3.53;1.45;;;;;;;;;;5069579;28;20084;-70
2023/06/30 10:16:30;;;;;;;5.18;1.42;;;;;;;;;;5021760;28;20910;-70
2023/06/30 10:19:00;;;;;;;3.00;1.30;;;;;;;;;;5038484;28;20070;-67
2023/06/30 10:21:26;;;;;;;1.75;0.98;;;;;;;;;;5050844;28;20223;-70
2023/06/30 10:23:53;;;;;;;1.65;0.93;;;;;;;;;;5037242;28;20117;-71
2023/06/30 10:26:20;;;;;;;3.60;1.30;;;;;;;;;;5006074;28;20064;-71
2023/06/30 10:28:48;;;;;;;2.97;1.20;;;;;;;;;;5044860;28;20053;-68
2023/06/30 10:31:15;;;;;;;5.13;1.20;;;;;;;;;;5026986;28;20145;-70
2023/06/30 10:33:42;;;;;;;3.83;1.20;;;;;;;;;;5035928;28;20057;-72
2023/06/30 10:36:10;;;;;;;3.17;1.65;;;;;;;;;;5025535;28;20061;-71
2023/06/30 10:38:37;;;;;;;4.97;1.83;;;;;;;;;;5031268;28;20071;-70
2023/06/30 10:41:13;;;;;;;4.57;1.67;;;;;;;;;;5060272;28;20064;-68
2023/06/30 10:43:59;;;;;;;3.60;1.48;;;;;;;;;;5032630;28;20060;-69
2023/06/30 10:46:40;;;;;;;5.32;1.27;;;;;;;;;;5024565;28;20079;-67
2023/06/30 10:49:08;;;;;;;3.25;1.50;;;;;;;;;;5035157;28;20052;-70
2023/06/30 10:51:35;;;;;;;3.60;1.40;;;;;;;;;;5030557;28;20063;-74
2023/06/30 10:54:02;;;;;;;3.97;1.30;;;;;;;;;;5039516;28;20056;-71
2023/06/30 10:56:28;;;;;;;5.10;1.02;;;;;;;;;;5039729;28;20113;-69
2023/06/30 10:58:56;;;;;;;3.50;1.05;;;;;;;;;;5049070;28;20201;-68
2023/06/30 11:01:23;;;;;;;3.05;1.10;;;;;;;;;;5036055;28;20053;-71
2023/06/30 11:04:09;;;;;;;5.70;1.55;;;;;;;;;;5030179;28;20067;-71
2023/06/30 11:06:37;;;;;;;3.42;1.10;;;;;;;;;;5029080;28;20136;-67
2023/06/30 11:09:04;;;;;;;4.07;1.48;;;;;;;;;;5043899;28;20059;-69
2023/06/30 11:11:47;;;;;;;3.55;1.25;;;;;;;;;;5046189;28;20049;-76
2023/06/30 11:14:14;;;;;;;4.93;1.52;;;;;;;;;;5028060;28;20056;-72
2023/06/30 11:17:02;;;;;;;8.00;2.75;;;;;;;;;;5046475;28;20072;-69
2023/06/30 11:19:29;;;;;;;4.32;1.60;;;;;;;;;;5039008;28;20092;-72
2023/06/30 11:22:10;;;;;;;4.25;1.13;;;;;;;;;;5052234;28;20052;-70
2023/06/30 11:24:40;;;;;;;2.67;1.20;;;;;;;;;;5030862;28;20056;-66
2023/06/30 11:27:07;;;;;;;5.93;1.35;;;;;;;;;;5046101;28;20133;-67
2023/06/30 11:29:33;;;;;;;4.45;1.40;;;;;;;;;;5031146;28;20095;-70
2023/06/30 11:32:00;;;;;;;1.92;1.08;;;;;;;;;;5038420;28;20134;-68
2023/06/30 11:34:28;;;;;;;6.82;1.83;;;;;;;;;;5029421;28;20146;-69
2023/06/30 11:36:54;;;;;;;3.33;1.40;;;;;;;;;;4972442;28;20049;-70
2023/06/30 11:39:22;;;;;;;4.20;1.50;;;;;;;;;;5026796;28;20061;-71
2023/06/30 11:41:51;;;;;;;4.07;1.60;;;;;;;;;;5034081;28;20056;-70
2023/06/30 11:44:17;;;;;;;;;;;;;;;;;;5026594;28;20061;-65
2023/06/30 11:46:44;;;;;;;8.38;1.90;;;;;;;;;;5027728;28;19933;-69
2023/06/30 11:49:10;;;;;;;3.42;1.33;;;;;;;;;;5032017;28;20087;-67
2023/06/30 11:51:37;;;;;;;4.70;1.38;;;;;;;;;;5032487;28;20072;-69
2023/06/30 11:54:03;;;;;;;3.15;1.42;;;;;;;;;;5028316;28;20056;-67
2023/06/30 11:56:30;;;;;;;3.47;1.40;;;;;;;;;;5029765;28;20130;-67
2023/06/30 11:58:59;;;;;;;5.18;1.30;;;;;;;;;;5036687;28;20140;-68
2023/06/30 12:01:28;;;;;;;3.47;1.38;;;;;;;;;;5051263;28;20196;-68
2023/06/30 12:03:58;;;;;;;8.23;1.30;;;;;;;;;;5038865;28;20061;-68
2023/06/30 12:06:25;;;;;;;3.90;1.10;;;;;;;;;;5040195;28;20061;-67
2023/06/30 12:08:52;;;;;;;6.20;1.50;;;;;;;;;;5041294;28;20086;-66
2023/06/30 12:11:18;;;;;;;2.03;1.17;;;;;;;;;;5043617;28;20084;-68
2023/06/30 12:13:47;;;;;;;3.70;1.50;;;;;;;;;;5039276;28;20113;-67
2023/06/30 12:16:17;;;;;;;2.60;1.20;;;;;;;;;;5031998;28;20052;-68
2023/06/30 12:18:46;;;;;;;4.10;1.30;;;;;;;;;;5041731;28;20057;-68
2023/06/30 12:21:13;;;;;;;6.05;1.30;;;;;;;;;;5040717;28;20194;-67
2023/06/30 12:23:43;;;;;;;5.32;1.35;;;;;;;;;;5036207;28;20106;-69
2023/06/30 12:26:10;;;;;;;4.65;1.27;;;;;;;;;;5034531;28;20060;-65
2023/06/30 12:28:36;;;;;;;6.68;1.67;;;;;;;;;;5036178;28;20060;-67
2023/06/30 12:31:03;;;;;;;4.38;1.92;;;;;;;;;;5037219;28;20136;-67
2023/06/30 12:33:32;;;;;;;5.43;1.77;;;;;;;;;;5040782;28;20064;-67
2023/06/30 12:36:07;;;;;;;;;;;;;;;;;;5025590;28;20077;-67
2023/06/30 12:38:34;;;;;;;3.63;1.30;;;;;;;;;;5028328;28;19924;-63
2023/06/30 12:41:00;;;;;;;6.55;1.40;;;;;;;;;;5039200;28;20896;-66
2023/06/30 12:43:28;;;;;;;3.80;1.20;;;;;;;;;;5040036;28;20057;-66
2023/06/30 12:45:54;;;;;;;4.05;1.33;;;;;;;;;;5034767;28;20061;-68
2023/06/30 12:48:21;;;;;;;4.75;1.38;;;;;;;;;;5035584;28;20194;-66
2023/06/30 12:50:49;;;;;;;4.72;1.00;;;;;;;;;;5034416;28;20111;-67
2023/06/30 12:53:15;;;;;;;;;;;;;;;;;;5037157;28;20069;-68
2023/06/30 12:55:42;;;;;;;3.50;1.42;;;;;;;;;;5062408;28;19925;-67
2023/06/30 12:58:08;;;;;;;3.20;1.20;;;;;;;;;;5034994;28;20049;-65
2023/06/30 13:00:35;;;;;;;3.33;1.20;;;;;;;;;;5033603;28;21101;-67
2023/06/30 13:03:02;;;;;;;2.60;1.15;;;;;;;;;;5037532;28;20183;-66
2023/06/30 13:05:28;;;;;;;4.47;1.38;;;;;;;;;;5035869;28;20132;-65
2023/06/30 13:07:56;;;;;;;4.20;1.42;;;;;;;;;;5020975;28;20156;-66
2023/06/30 13:10:23;;;;;;;;;;;;;;;;;;5042361;28;20045;-66
2023/06/30 13:12:49;;;;;;;5.82;1.77;;;;;;;;;;5036983;28;19925;-67
2023/06/30 13:15:16;;;;;;;2.72;1.42;;;;;;;;;;5054398;28;20068;-72
2023/06/30 13:17:43;;;;;;;1.30;0.90;;;;;;;;;;5035949;28;20045;-67
2023/06/30 13:20:13;;;;;;;4.80;1.30;;;;;;;;;;5038916;28;20068;-70
2023/06/30 13:22:39;;;;;;;7.93;1.67;;;;;;;;;;5039410;28;20052;-68
2023/06/30 13:25:08;;;;;;;5.50;1.70;;;;;;;;;;5038763;28;20089;-68
2023/06/30 13:27:34;;;;;;;;;;;;;;;;;;5037600;28;20084;-68
2023/06/30 13:30:01;;;;;;;4.03;1.60;;;;;;;;;;5042134;28;19929;-70
2023/06/30 13:32:27;;;;;;;4.43;1.50;;;;;;;;;;5030543;28;20083;-69
2023/06/30 13:34:54;;;;;;;4.03;1.38;;;;;;;;;;5035939;28;20114;-67
2023/06/30 13:37:21;;;;;;;3.28;1.20;;;;;;;;;;5036556;28;20087;-70
2023/06/30 13:39:47;;;;;;;5.13;1.55;;;;;;;;;;5068991;28;20054;-68
2023/06/30 13:42:15;;;;;;;5.65;2.03;;;;;;;;;;5052545;28;20069;-69
2023/06/30 13:44:42;;;;;;;4.47;1.25;;;;;;;;;;5035510;28;20095;-68
2023/06/30 13:47:08;;;;;;;2.80;1.23;;;;;;;;;;5016052;28;20052;-67
2023/06/30 13:49:35;;;;;;;3.60;1.33;;;;;;;;;;5041660;28;20080;-70
2023/06/30 13:52:01;;;;;;;6.28;2.78;;;;;;;;;;4986113;28;20052;-70
2023/06/30 13:54:30;;;;;;;3.77;2.17;;;;;;;;;;5035013;28;20052;-67
2023/06/30 14:02:09;;;;;;;3.17;1.20;;;;;;;;;;4916525;28;20055;-68
2023/06/30 14:04:35;;;;;;;2.90;1.20;;;;;;;;;;4955717;28;20049;-66
2023/06/30 14:07:07;;;;;;;2.45;1.20;;;;;;;;;;4965532;28;20164;-67
2023/06/30 14:09:34;;;;;;;2.50;1.15;;;;;;;;;;4929901;28;20030;-66
2023/06/30 14:12:02;;;;;;;4.97;1.20;;;;;;;;;;4991234;28;20069;-68
2023/06/30 14:14:29;;;;;;;2.50;1.23;;;;;;;;;;4977565;28;20057;-69
2023/06/30 14:16:55;;;;;;;2.95;1.48;;;;;;;;;;4974518;28;20070;-68
2023/06/30 14:19:23;;;;;;;4.18;1.70;;;;;;;;;;4966713;28;20086;-67
2023/06/30 14:21:50;;;;;;;2.00;1.10;;;;;;;;;;4967894;28;20181;-66
2023/06/30 14:24:22;;;;;;;2.50;1.23;;;;;;;;;;4963948;28;20109;-68
2023/06/30 14:26:49;;;;;;;5.70;1.70;;;;;;;;;;4972910;28;20094;-71
2023/06/30 14:29:15;;;;;;;2.42;1.00;;;;;;;;;;4972183;28;20066;-67
2023/06/30 14:31:41;;;;;;;4.75;1.73;;;;;;;;;;4950260;28;20065;-66
2023/06/30 14:34:09;;;;;;;4.38;1.60;;;;;;;;;;4952421;28;20064;-70
2023/06/30 14:36:37;;;;;;;3.58;1.42;;;;;;;;;;4975626;28;20161;-67
2023/06/30 14:39:03;;;;;;;5.05;1.60;;;;;;;;;;4971390;28;20077;-65
2023/06/30 14:41:30;;;;;;;4.68;1.50;;;;;;;;;;4955939;28;20069;-67
2023/06/30 14:43:56;;;;;;;3.50;1.45;;;;;;;;;;4957746;28;20062;-65
2023/06/30 14:46:23;;;;;;;2.85;1.58;;;;;;;;;;4958275;28;20194;-73
2023/06/30 14:48:49;;;;;;;5.05;1.75;;;;;;;;;;4980198;28;20050;-67
2023/06/30 14:51:19;;;;;;;2.95;1.33;;;;;;;;;;4955514;28;20063;-68
2023/06/30 14:53:47;;;;;;;6.28;2.30;;;;;;;;;;4977277;28;20144;-69